createdAt,value
2023-02-24T02:25:26.423Z,0.51
2023-02-24T02:26:26.496Z,0.51
2023-02-24T02:27:26.526Z,0.52
2023-02-24T02:30:26.638Z,0.51
2023-02-24T02:31:26.798Z,0.52
2023-02-24T02:32:26.870Z,0.50
2023-02-24T02:33:26.805Z,0.51
2023-02-24T02:34:26.820Z,0.52
2023-02-24T02:35:26.856Z,0.51
2023-02-24T02:36:26.920Z,0.51
2023-02-24T02:37:27.000Z,0.52
2023-02-24T02:39:27.056Z,0.52
2023-02-24T03:25:28.950Z,0.52
2023-02-24T06:01:42.821Z,0.57
2023-02-24T06:02:35.782Z,0.57
2023-02-24T06:03:35.773Z,0.57
2023-02-24T06:04:35.737Z,0.57
2023-02-24T06:05:35.757Z,0.57
2023-02-24T06:06:35.708Z,0.56
2023-02-24T06:07:35.715Z,0.57
2023-02-24T06:08:35.726Z,0.56
2023-02-24T06:09:35.713Z,0.58
2023-02-24T06:10:35.719Z,0.57
2023-02-24T06:11:35.713Z,0.57
2023-02-24T06:12:35.724Z,0.57
2023-02-24T06:13:35.694Z,0.56
2023-02-24T06:14:35.723Z,0.57
2023-02-24T06:15:35.649Z,0.56
2023-02-24T06:16:35.684Z,0.55
2023-02-24T06:17:35.650Z,0.56
2023-02-24T06:18:35.645Z,0.56
2023-02-24T06:19:35.666Z,0.57
2023-02-24T06:20:35.642Z,0.56
2023-02-24T06:21:35.614Z,0.57
2023-02-24T06:22:35.625Z,0.56
2023-02-24T06:23:35.635Z,0.55
2023-02-24T06:24:35.620Z,0.56
2023-02-24T06:25:35.616Z,0.57
2023-02-24T06:26:35.619Z,17.33
2023-02-24T06:27:35.619Z,3.83
2023-02-24T06:28:35.911Z,1.85
2023-02-24T06:29:35.596Z,2.20
2023-02-24T06:30:35.638Z,2.87
2023-02-24T06:31:35.639Z,2.15
2023-02-24T06:32:35.675Z,1.61
2023-02-24T06:33:35.881Z,1.34
2023-02-24T06:34:35.603Z,1.05
2023-02-24T06:35:35.541Z,0.91
2023-02-24T06:36:35.510Z,0.99
2023-02-24T06:43:35.909Z,1.15
2023-02-24T06:44:35.469Z,1.19
2023-02-24T06:45:42.553Z,1.39
2023-02-24T06:46:35.487Z,1.42
2023-02-24T06:47:35.499Z,1.59
2023-02-24T06:48:35.895Z,1.82
2023-02-24T06:49:35.504Z,2.23
2023-02-24T06:50:35.459Z,2.62
2023-02-24T06:51:35.518Z,2.61
2023-02-24T06:52:35.414Z,2.88
2023-02-24T06:53:36.006Z,3.81
2023-02-24T06:54:35.422Z,3.29
2023-02-24T06:55:35.436Z,3.29
2023-02-24T06:56:35.385Z,4.20
2023-02-24T06:57:35.437Z,4.05
2023-02-24T06:58:35.407Z,4.18
2023-02-24T06:59:35.415Z,4.85
2023-02-24T07:00:35.398Z,4.66
2023-02-24T07:01:35.442Z,4.22
2023-02-24T07:02:35.374Z,3.79
2023-02-24T07:03:35.399Z,3.69
2023-02-24T07:04:35.427Z,4.20
2023-02-24T07:05:35.328Z,3.68
2023-02-24T07:06:35.381Z,3.72
2023-02-24T07:07:35.353Z,3.86
2023-02-24T07:08:35.356Z,4.73
2023-02-24T07:09:35.342Z,5.35
2023-02-24T07:10:35.305Z,5.37
2023-02-24T07:11:35.296Z,5.82
2023-02-24T07:12:35.292Z,5.49
2023-02-24T07:13:35.299Z,6.00
2023-02-24T07:14:35.297Z,5.93
2023-02-24T07:15:35.332Z,5.76
2023-02-24T07:16:35.307Z,6.32
2023-02-24T07:17:35.273Z,6.60
2023-02-24T07:18:35.355Z,6.80
2023-02-24T07:19:35.254Z,7.22
2023-02-24T07:20:35.218Z,6.25
2023-02-24T07:21:35.195Z,5.91
2023-02-24T07:22:35.217Z,6.04
2023-02-24T07:23:35.410Z,6.07
2023-02-24T07:24:35.238Z,6.39
2023-02-24T07:25:35.207Z,5.96
2023-02-24T07:26:35.176Z,5.34
2023-02-24T07:27:35.202Z,5.51
2023-02-24T07:28:35.256Z,5.55
2023-02-24T07:29:35.256Z,5.37
2023-02-24T07:30:35.444Z,5.82
2023-02-24T07:31:35.459Z,5.10
2023-02-24T07:32:35.525Z,5.18
2023-02-24T07:33:35.536Z,5.08
2023-02-24T07:34:35.556Z,5.35
2023-02-24T07:35:35.640Z,5.14
2023-02-24T07:36:35.710Z,4.92
2023-02-24T07:37:35.757Z,3.53
2023-02-24T07:38:35.830Z,3.17
2023-02-24T07:39:35.936Z,3.05
2023-02-24T07:40:35.836Z,2.92
2023-02-24T07:42:35.832Z,2.82
2023-02-24T07:43:35.809Z,2.72
2023-02-24T07:44:35.870Z,3.02
2023-02-24T07:45:35.914Z,2.55
2023-02-24T07:46:35.937Z,2.44
2023-02-24T08:24:36.494Z,1.72
2023-02-24T08:25:36.593Z,1.71
2023-02-24T08:26:36.515Z,1.85
2023-02-24T08:27:36.468Z,1.87
2023-02-24T08:28:36.482Z,1.92
2023-02-24T08:29:36.539Z,2.10
2023-02-24T08:30:36.540Z,2.00
2023-02-24T08:31:36.688Z,10.67
2023-02-24T08:32:36.627Z,6.97
2023-02-24T08:33:36.557Z,8.01
2023-02-24T08:34:36.568Z,6.39
2023-02-24T08:35:36.579Z,5.70
2023-02-24T08:36:36.551Z,5.21
2023-02-24T08:37:36.598Z,4.43
2023-02-24T08:38:36.648Z,3.72
2023-02-24T08:39:36.962Z,2.97
2023-02-24T08:40:36.759Z,2.63
2023-02-24T08:41:36.771Z,2.35
2023-02-24T08:42:36.875Z,2.28
2023-02-24T08:43:36.900Z,2.36
2023-02-24T08:44:37.444Z,2.21
2023-02-24T08:45:36.995Z,1.84
2023-02-24T08:46:37.119Z,1.86
2023-02-24T08:47:37.126Z,1.96
2023-02-24T08:48:37.275Z,2.05
2023-02-24T08:49:37.187Z,2.29
2023-02-24T08:50:37.184Z,2.30
2023-02-24T08:51:37.196Z,2.28
2023-02-24T08:52:37.190Z,2.23
2023-02-24T08:53:37.209Z,2.27
2023-02-24T08:54:37.204Z,2.17
2023-02-24T08:55:37.235Z,2.24
2023-02-24T08:56:37.203Z,2.15
2023-02-24T08:57:37.244Z,2.16
2023-02-24T08:58:37.230Z,2.50
2023-02-24T08:59:37.283Z,2.02
2023-02-24T09:00:37.274Z,1.99
2023-02-24T09:01:37.303Z,1.93
2023-02-24T09:02:37.240Z,1.73
2023-02-24T09:03:37.219Z,1.88
2023-02-24T09:04:37.273Z,1.84
2023-02-24T09:05:37.239Z,1.71
2023-02-24T09:06:37.259Z,1.80
2023-02-24T09:28:37.815Z,0.50
2023-02-24T09:29:37.954Z,0.55
2023-02-24T09:30:38.134Z,0.68
2023-02-24T09:32:38.084Z,0.83
2023-02-24T09:33:37.984Z,0.54
2023-02-24T09:34:38.466Z,0.60
2023-02-24T09:35:38.054Z,0.77
2023-02-24T09:36:38.473Z,0.94
2023-02-24T09:37:38.128Z,1.05
2023-02-24T09:38:38.182Z,1.15
2023-02-24T09:39:38.209Z,1.36
2023-02-24T09:40:38.236Z,1.53
2023-02-24T09:41:38.250Z,1.55
2023-02-24T09:42:38.236Z,1.53
2023-02-24T09:43:38.311Z,1.70
2023-02-24T09:44:38.367Z,1.74
2023-02-24T09:45:38.483Z,1.70
2023-02-24T09:46:38.523Z,1.75
2023-02-24T09:47:38.375Z,1.74
2023-02-24T09:48:38.461Z,1.80
2023-02-24T09:49:38.519Z,1.69
2023-02-24T09:51:01.684Z,1.60
2023-02-24T09:51:39.460Z,1.62
2023-02-24T09:52:38.475Z,1.73
2023-02-24T09:53:40.915Z,2.10
2023-02-24T09:54:38.447Z,3.04
2023-02-24T09:55:38.441Z,4.54
2023-02-24T09:56:38.431Z,5.63
2023-02-24T09:57:38.502Z,6.27
2023-02-24T09:58:44.050Z,6.83
2023-02-24T09:59:39.460Z,6.88
2023-02-24T10:00:38.440Z,7.03
2023-02-24T10:01:38.453Z,7.35
2023-02-24T10:02:38.480Z,8.13
2023-02-24T10:03:38.975Z,9.79
2023-02-24T10:04:38.433Z,11.35
2023-02-24T10:05:38.612Z,10.17
2023-02-24T10:06:38.396Z,9.22
2023-02-24T10:07:38.410Z,7.07
2023-02-24T10:08:38.378Z,7.90
2023-02-24T10:09:38.410Z,8.12
2023-02-24T10:10:38.382Z,9.00
2023-02-24T10:11:38.333Z,9.03
2023-02-24T10:12:38.341Z,10.35
2023-02-24T10:13:38.332Z,7.88
2023-02-24T10:14:43.757Z,9.49
2023-02-24T10:15:39.350Z,9.51
2023-02-24T10:16:38.421Z,9.63
2023-02-24T10:17:38.900Z,10.05
2023-02-24T10:18:38.352Z,9.65
2023-02-24T10:19:38.429Z,9.35
2023-02-24T10:20:38.321Z,9.41
2023-02-24T10:21:38.302Z,8.28
2023-02-24T10:22:38.329Z,8.55
2023-02-24T10:23:38.289Z,7.80
2023-02-24T10:24:38.309Z,6.91
2023-02-24T10:25:38.297Z,8.23
2023-02-24T10:26:39.220Z,5.63
2023-02-24T10:27:38.305Z,5.09
2023-02-24T10:28:38.256Z,4.17
2023-02-24T10:29:38.346Z,3.74
2023-02-24T10:30:38.436Z,3.31
2023-02-24T10:31:38.355Z,3.00
2023-02-24T10:32:38.279Z,2.71
2023-02-24T10:33:38.217Z,2.46
2023-02-24T10:34:38.284Z,2.60
2023-02-24T10:35:38.513Z,2.05
2023-02-24T10:36:38.364Z,1.65
2023-02-24T10:37:38.380Z,1.60
2023-02-24T10:38:38.395Z,1.40
2023-02-24T10:39:38.421Z,1.53
2023-02-24T10:40:38.406Z,1.47
2023-02-24T10:41:38.426Z,2.87
2023-02-24T10:42:38.413Z,2.88
2023-02-24T10:43:38.460Z,4.84
2023-02-24T10:44:38.442Z,3.88
2023-02-24T10:45:38.423Z,3.16
2023-02-24T10:46:41.910Z,2.57
2023-02-24T10:47:38.465Z,2.58
2023-02-24T10:48:41.812Z,2.07
2023-02-24T10:49:38.454Z,2.64
2023-02-24T10:50:41.400Z,2.60
2023-02-24T10:51:39.456Z,1.50
2023-02-24T10:52:38.527Z,1.54
2023-02-24T10:53:39.253Z,1.61
2023-02-24T10:54:38.491Z,1.52
2023-02-24T10:55:38.437Z,1.45
2023-02-24T10:56:38.414Z,1.34
2023-02-24T10:57:47.423Z,0.92
2023-02-24T10:58:39.411Z,0.82
2023-02-24T10:59:38.488Z,0.72
2023-02-24T11:00:38.401Z,0.77
2023-02-24T11:01:38.460Z,0.88
2023-02-24T11:02:38.449Z,0.81
2023-02-24T11:03:38.346Z,0.75
2023-02-24T11:04:38.356Z,0.73
2023-02-24T11:05:38.412Z,0.69
2023-02-24T11:06:38.344Z,0.62
2023-02-24T11:07:38.304Z,0.84
2023-02-24T11:08:38.312Z,0.84
2023-02-24T11:09:38.329Z,1.01
2023-02-24T11:10:38.334Z,1.47
2023-02-24T11:11:38.317Z,1.95
2023-02-24T11:12:38.314Z,2.26
2023-02-24T11:13:38.335Z,2.84
2023-02-24T11:14:38.282Z,3.61
2023-02-24T11:23:38.593Z,6.87
2023-02-24T11:24:38.560Z,6.71
2023-02-24T11:25:38.610Z,6.94
2023-02-24T11:26:38.630Z,6.72
2023-02-24T11:27:38.626Z,7.08
2023-02-24T11:28:38.627Z,7.11
2023-02-24T11:29:38.617Z,7.01
2023-02-24T11:30:39.064Z,7.39
2023-02-24T11:31:38.931Z,7.10
2023-02-24T11:32:38.811Z,7.15
2023-02-24T11:33:38.652Z,7.18
2023-02-24T11:34:38.673Z,7.54
2023-02-24T11:35:39.039Z,7.45
2023-02-24T11:36:38.677Z,7.41
2023-02-24T11:37:40.026Z,6.48
2023-02-24T15:20:46.479Z,1.62
2023-02-24T15:21:46.544Z,1.70
2023-02-24T15:22:46.590Z,1.67
2023-02-24T15:23:46.616Z,1.68
2023-02-24T15:24:46.701Z,1.77
2023-02-24T15:25:46.797Z,1.86
2023-02-24T15:26:46.821Z,1.72
2023-02-24T15:27:46.885Z,1.81
2023-02-24T15:28:46.928Z,1.87
2023-02-24T15:29:47.014Z,1.72
2023-02-24T15:30:47.043Z,1.58
2023-02-24T15:31:47.186Z,1.66
2023-02-24T15:32:47.164Z,1.69
2023-02-24T15:33:47.114Z,1.79
2023-02-24T15:34:47.179Z,1.64
2023-02-24T15:35:48.128Z,1.63
2023-02-24T15:36:47.255Z,1.72
2023-02-24T15:37:47.308Z,1.66
2023-02-24T15:38:47.338Z,1.56
2023-02-24T15:39:47.403Z,1.61
2023-02-24T15:40:47.427Z,1.61
2023-02-24T15:41:47.470Z,1.60
2023-02-24T15:42:47.533Z,1.66
2023-02-24T15:43:47.614Z,1.67
2023-02-24T15:44:47.610Z,1.67
2023-02-24T15:45:47.685Z,1.64
2023-02-24T15:46:47.861Z,1.62
2023-02-24T15:47:47.749Z,1.55
2023-02-24T15:48:47.797Z,1.67
2023-02-24T15:49:47.799Z,1.78
2023-02-24T15:50:47.836Z,1.75
2023-02-24T15:51:47.800Z,1.76
2023-02-24T15:52:47.872Z,1.80
2023-02-24T15:53:47.839Z,1.75
2023-02-24T15:54:47.939Z,1.66
2023-02-24T15:55:47.934Z,1.74
2023-02-24T15:56:48.100Z,1.57
2023-02-24T15:57:48.009Z,1.53
2023-02-24T15:58:48.070Z,1.64
2023-02-24T15:59:48.139Z,1.54
2023-02-24T16:00:48.176Z,1.45
2023-02-24T16:01:48.194Z,1.41
2023-02-24T16:02:49.130Z,1.41
2023-02-24T16:03:48.267Z,1.55
2023-02-24T16:04:48.287Z,1.56
2023-02-24T16:05:48.356Z,1.60
2023-02-24T16:06:48.401Z,1.69
2023-02-24T16:07:48.443Z,1.65
2023-02-24T16:08:48.428Z,1.57
2023-02-24T16:09:48.424Z,1.57
2023-02-24T16:10:48.465Z,1.68
2023-02-24T16:11:48.525Z,1.60
2023-02-24T16:12:48.519Z,1.56
2023-02-24T16:13:48.530Z,1.47
2023-02-24T16:14:48.555Z,1.48
2023-02-24T16:15:48.601Z,1.55
2023-02-24T16:16:48.722Z,1.55
2023-02-24T16:17:48.559Z,1.51
2023-02-24T16:18:48.588Z,1.43
2023-02-24T16:19:48.624Z,1.45
2023-02-24T16:20:48.616Z,1.39
2023-02-24T16:21:48.633Z,1.48
2023-02-24T16:22:48.617Z,1.67
2023-02-24T16:23:48.604Z,1.57
2023-02-24T16:24:48.618Z,1.60
2023-02-24T16:25:48.655Z,1.62
2023-02-24T16:26:48.669Z,1.54
2023-02-24T16:27:48.639Z,1.41
2023-02-24T16:28:48.638Z,1.43
2023-02-24T16:29:48.632Z,1.42
2023-02-24T16:30:48.860Z,1.32
2023-02-24T16:31:48.909Z,1.31
2023-02-24T16:32:48.741Z,1.40
2023-02-24T16:33:54.969Z,1.47
2023-02-24T16:34:49.677Z,1.38
2023-02-24T16:35:48.648Z,1.30
2023-02-24T16:36:48.651Z,1.28
2023-02-24T16:37:48.620Z,1.30
2023-02-24T16:38:48.635Z,1.40
2023-02-24T16:39:48.603Z,1.28
2023-02-24T16:40:48.632Z,1.28
2023-02-24T16:41:48.593Z,1.24
2023-02-24T16:42:48.606Z,1.25
2023-02-24T16:43:48.575Z,1.25
2023-02-24T16:44:48.581Z,1.28
2023-02-24T16:45:48.616Z,1.23
2023-02-24T16:46:48.576Z,1.24
2023-02-24T16:47:48.597Z,1.22
2023-02-24T16:48:48.564Z,1.21
2023-02-24T16:49:48.573Z,1.24
2023-02-24T16:50:48.563Z,1.19
2023-02-24T16:51:48.560Z,1.15
2023-02-24T16:52:48.530Z,1.22
2023-02-24T16:53:48.539Z,1.22
2023-02-24T16:54:48.512Z,1.24
2023-02-24T16:55:48.510Z,1.18
2023-02-24T16:56:48.663Z,1.18
2023-02-24T16:57:48.500Z,1.20
2023-02-24T16:58:48.483Z,1.23
2023-02-24T16:59:48.477Z,1.24
2023-02-24T17:00:48.506Z,1.20
2023-02-24T17:01:48.542Z,1.14
2023-02-24T17:02:48.600Z,1.27
2023-02-24T17:03:48.681Z,1.24
2023-02-24T17:04:48.617Z,1.32
2023-02-24T17:05:48.646Z,1.33
2023-02-24T17:06:48.630Z,1.31
2023-02-24T17:07:48.646Z,1.33
2023-02-24T17:08:48.671Z,1.35
2023-02-24T17:09:48.690Z,1.40
2023-02-24T17:10:48.679Z,1.40
2023-02-24T17:11:48.707Z,1.33
2023-02-24T17:12:48.689Z,1.30
2023-02-24T17:13:48.701Z,1.30
2023-02-24T17:14:48.722Z,1.30
2023-02-24T17:15:48.697Z,1.42
2023-02-24T17:16:48.778Z,1.43
2023-02-24T17:17:48.744Z,1.44
2023-02-24T17:18:48.752Z,1.37
2023-02-24T17:19:48.727Z,1.37
2023-02-24T17:20:48.760Z,1.25
2023-02-24T17:21:48.726Z,1.28
2023-02-24T17:22:48.758Z,1.35
2023-02-24T17:23:48.729Z,1.37
2023-02-24T17:24:48.779Z,1.34
2023-02-24T17:25:48.779Z,1.31
2023-02-24T17:26:48.774Z,1.42
2023-02-24T17:27:48.768Z,1.46
2023-02-24T17:28:48.774Z,1.44
2023-02-24T17:29:48.738Z,1.41
2023-02-24T17:30:48.829Z,1.37
2023-02-24T17:31:49.031Z,1.46
2023-02-24T17:32:48.845Z,1.56
2023-02-24T17:33:48.782Z,1.47
2023-02-24T17:34:48.772Z,1.41
2023-02-24T17:35:48.792Z,1.44
2023-02-24T17:36:48.787Z,1.45
2023-02-24T17:37:48.803Z,1.41
2023-02-24T17:38:48.802Z,1.45
2023-02-24T17:39:48.795Z,1.40
2023-02-24T17:40:48.797Z,1.45
2023-02-24T17:41:48.821Z,1.48
2023-02-24T17:42:48.847Z,1.49
2023-02-24T17:43:48.842Z,1.47
2023-02-24T17:44:48.840Z,1.36
2023-02-24T17:45:48.844Z,1.37
2023-02-24T17:46:48.871Z,1.41
2023-02-24T17:47:48.827Z,1.48
2023-02-24T17:48:48.873Z,1.46
2023-02-24T17:49:48.867Z,1.47
2023-02-24T17:50:48.857Z,1.45
2023-02-24T17:51:48.896Z,1.45
2023-02-24T17:52:48.914Z,1.42
2023-02-24T17:53:48.918Z,1.40
2023-02-24T17:54:48.908Z,1.32
2023-02-24T17:56:01.901Z,1.38
2023-02-24T17:57:48.903Z,1.38
2023-02-24T17:58:48.894Z,1.40
2023-02-24T17:59:48.889Z,1.39
2023-02-24T18:00:48.887Z,1.37
2023-02-24T18:01:48.973Z,1.28
2023-02-24T18:02:48.952Z,1.27
2023-02-24T18:03:48.917Z,1.27
2023-02-24T18:04:48.871Z,1.28
2023-02-24T18:05:48.834Z,1.34
2023-02-24T18:06:48.843Z,1.38
2023-02-24T18:07:48.876Z,1.33
2023-02-24T18:08:48.814Z,1.41
2023-02-24T18:09:48.934Z,1.39
2023-02-24T18:10:48.827Z,1.43
2023-02-24T18:11:48.902Z,1.47
2023-02-24T18:12:48.795Z,1.49
2023-02-24T18:13:48.766Z,1.44
2023-02-24T18:14:59.046Z,1.38
2023-02-24T18:15:49.854Z,1.39
2023-02-24T18:16:48.784Z,1.39
2023-02-24T18:17:48.748Z,1.43
2023-02-24T18:18:48.785Z,1.52
2023-02-24T18:19:48.784Z,1.46
2023-02-24T18:20:48.773Z,1.43
2023-02-24T18:21:48.731Z,1.48
2023-02-24T18:22:48.759Z,1.48
2023-02-24T18:23:48.751Z,1.48
2023-02-24T18:24:48.704Z,1.53
2023-02-24T18:25:48.734Z,1.44
2023-02-24T18:26:48.716Z,1.47
2023-02-24T18:27:48.730Z,1.50
2023-02-24T18:28:48.699Z,1.59
2023-02-24T18:29:48.690Z,1.63
2023-02-24T18:30:48.801Z,1.57
2023-02-24T18:31:48.919Z,1.61
2023-02-24T18:38:48.656Z,1.62
2023-02-24T18:39:48.647Z,1.65
2023-02-24T18:40:48.668Z,1.59
2023-02-24T18:41:48.681Z,1.62
2023-02-24T18:42:48.721Z,1.59
2023-02-24T18:43:48.710Z,1.62
2023-02-24T18:44:48.714Z,1.62
2023-02-24T18:45:48.751Z,1.70
2023-02-24T18:46:48.867Z,1.66
2023-02-24T18:47:48.760Z,1.69
2023-02-24T18:48:48.792Z,1.72
2023-02-24T18:49:48.777Z,1.71
2023-02-24T18:50:48.801Z,1.62
2023-02-24T18:51:48.953Z,1.59
2023-02-24T18:52:48.804Z,1.66
2023-02-24T18:53:50.805Z,1.66
2023-02-24T18:54:48.831Z,1.70
2023-02-24T18:55:48.786Z,1.57
2023-02-24T18:56:48.802Z,1.55
2023-02-24T18:57:48.811Z,1.59
2023-02-24T18:58:48.784Z,1.56
2023-02-24T18:59:48.772Z,1.59
2023-02-24T19:00:48.762Z,1.59
2023-02-24T19:01:48.809Z,1.61
2023-02-24T19:02:48.806Z,1.61
2023-02-24T19:03:48.769Z,1.64
2023-02-24T19:04:48.754Z,1.74
2023-02-24T19:05:48.730Z,1.68
2023-02-24T19:06:48.805Z,1.69
2023-02-24T19:07:48.723Z,1.63
2023-02-24T19:08:48.733Z,1.64
2023-02-24T19:09:48.708Z,1.66
2023-02-24T19:10:48.710Z,1.70
2023-02-24T19:11:48.727Z,1.66
2023-02-24T19:12:49.228Z,1.64
2023-02-24T19:13:48.689Z,1.67
2023-02-24T19:14:48.659Z,1.70
2023-02-24T19:15:48.711Z,1.69
2023-02-24T19:16:48.678Z,1.66
2023-02-24T19:17:48.651Z,1.63
2023-02-24T19:18:48.622Z,1.58
2023-02-24T19:19:48.625Z,1.63
2023-02-24T19:20:48.632Z,1.54
2023-02-24T19:21:48.654Z,1.59
2023-02-24T19:22:51.457Z,1.58
2023-02-24T19:23:48.618Z,1.58
2023-02-24T19:24:48.598Z,1.51
2023-02-24T19:25:48.582Z,1.53
2023-02-24T19:26:48.583Z,1.58
2023-02-24T19:27:48.580Z,1.59
2023-02-24T19:28:48.610Z,1.62
2023-02-24T19:29:48.580Z,1.59
2023-02-24T19:30:48.615Z,1.57
2023-02-24T19:31:48.753Z,1.62
2023-02-24T19:32:48.646Z,1.59
2023-02-24T19:33:48.563Z,1.62
2023-02-24T19:34:48.568Z,1.66
2023-02-24T19:35:48.554Z,1.70
2023-02-24T19:36:48.533Z,1.64
2023-02-24T19:37:48.506Z,1.60
2023-02-24T19:38:48.532Z,1.59
2023-02-24T19:39:48.497Z,1.67
2023-02-24T19:40:48.501Z,1.65
2023-02-24T19:41:49.809Z,1.67
2023-02-24T19:42:48.524Z,1.72
2023-02-24T19:43:48.477Z,1.81
2023-02-24T19:44:48.460Z,1.81
2023-02-24T19:45:48.571Z,1.85
2023-02-24T19:46:48.484Z,1.82
2023-02-24T19:47:48.463Z,1.80
2023-02-24T19:48:48.449Z,1.85
2023-02-24T19:49:48.544Z,1.86
2023-02-24T19:50:48.424Z,1.95
2023-02-24T19:51:48.632Z,1.91
2023-02-24T19:52:48.428Z,1.89
2023-02-24T19:53:48.414Z,1.93
2023-02-24T19:54:48.404Z,1.94
2023-02-24T19:55:48.389Z,2.00
2023-02-24T19:56:48.419Z,1.98
2023-02-24T19:57:48.392Z,1.98
2023-02-24T19:58:48.392Z,2.08
2023-02-24T19:59:48.358Z,2.09
2023-02-24T20:00:48.564Z,2.11
2023-02-24T20:01:48.375Z,2.16
2023-02-24T20:02:48.352Z,2.17
2023-02-24T20:03:48.346Z,2.16
2023-02-24T20:04:48.363Z,2.23
2023-02-24T20:05:48.370Z,2.19
2023-02-24T20:06:48.364Z,2.24
2023-02-24T20:07:48.369Z,2.26
2023-02-24T20:08:48.327Z,2.29
2023-02-24T20:09:48.297Z,2.26
2023-02-24T20:10:48.325Z,2.38
2023-02-24T20:11:48.305Z,2.41
2023-02-24T20:12:48.290Z,2.39
2023-02-24T20:13:48.320Z,2.31
2023-02-24T20:14:48.264Z,2.38
2023-02-24T20:15:48.270Z,2.40
2023-02-24T20:16:48.332Z,2.41
2023-02-24T20:17:49.773Z,2.47
2023-02-24T20:18:48.249Z,2.45
2023-02-24T20:19:48.255Z,2.50
2023-02-24T20:20:48.311Z,2.56
2023-02-24T20:21:48.251Z,2.49
2023-02-24T20:22:48.249Z,2.56
2023-02-24T20:23:48.240Z,2.50
2023-02-24T20:24:48.236Z,2.42
2023-02-24T20:25:48.300Z,2.46
2023-02-24T20:26:48.304Z,2.57
2023-02-24T20:27:48.330Z,2.57
2023-02-24T20:28:48.344Z,2.66
2023-02-24T20:29:48.361Z,2.68
2023-02-24T20:30:48.394Z,2.64
2023-02-24T20:31:48.525Z,2.70
2023-02-24T20:32:48.632Z,2.60
2023-02-24T20:33:48.424Z,2.63
2023-02-24T20:34:48.558Z,2.58
2023-02-24T20:35:48.458Z,2.53
2023-02-24T20:36:48.519Z,2.53
2023-02-24T20:37:48.521Z,2.46
2023-02-24T20:38:48.533Z,2.49
2023-02-24T20:39:48.567Z,2.52
2023-02-24T20:40:48.590Z,2.56
2023-02-24T20:41:48.626Z,2.55
2023-02-24T20:42:48.653Z,2.49
2023-02-24T20:43:48.670Z,2.56
2023-02-24T20:44:48.684Z,2.65
2023-02-24T20:45:48.684Z,2.60
2023-02-24T20:46:48.740Z,2.70
2023-02-24T20:47:48.756Z,2.56
2023-02-24T20:48:48.763Z,2.58
2023-02-24T20:49:48.800Z,2.65
2023-02-24T20:50:48.801Z,2.69
2023-02-24T20:51:48.852Z,2.62
2023-02-24T20:52:48.874Z,2.73
2023-02-24T20:53:57.337Z,2.71
2023-02-24T20:54:49.873Z,2.72
2023-02-24T20:55:48.898Z,2.72
2023-02-24T20:56:48.860Z,2.71
2023-02-24T20:57:48.854Z,2.73
2023-02-24T20:58:48.830Z,2.81
2023-02-24T21:00:02.592Z,2.84
2023-02-24T21:00:49.809Z,2.84
2023-02-24T21:01:48.900Z,2.85
2023-02-24T21:02:48.826Z,2.86
2023-02-24T21:03:48.806Z,2.95
2023-02-24T21:04:48.848Z,2.97
2023-02-24T21:05:48.916Z,2.87
2023-02-24T21:06:48.800Z,2.87
2023-02-24T21:07:48.806Z,2.84
2023-02-24T21:08:48.758Z,2.83
2023-02-24T21:09:48.814Z,2.73
2023-02-24T21:10:48.760Z,2.69
2023-02-24T21:11:48.763Z,2.66
2023-02-24T21:12:48.760Z,2.60
2023-02-24T21:13:48.737Z,2.56
2023-02-24T21:14:48.723Z,2.43
2023-02-24T21:15:48.736Z,2.43
2023-02-24T21:16:48.723Z,2.38
2023-02-24T21:17:48.706Z,2.29
2023-02-24T21:18:48.729Z,2.25
2023-02-24T21:20:48.709Z,2.27
2023-02-24T21:21:48.705Z,2.22
2023-02-24T21:22:48.744Z,2.19
2023-02-24T21:23:48.762Z,2.20
2023-02-24T21:24:48.810Z,2.21
2023-02-24T21:25:48.818Z,2.13
2023-02-24T21:26:48.824Z,2.09
2023-02-24T21:27:48.882Z,2.16
2023-02-24T21:28:48.895Z,2.12
2023-02-24T21:29:48.911Z,2.05
2023-02-24T21:30:49.008Z,1.98
2023-02-24T21:31:49.096Z,1.97
2023-02-24T21:32:49.059Z,1.94
2023-02-24T21:33:49.015Z,1.87
2023-02-24T21:34:49.073Z,1.95
2023-02-24T21:35:49.095Z,1.89
2023-02-24T21:36:49.105Z,1.84
2023-02-24T21:37:49.170Z,1.79
2023-02-24T21:38:49.207Z,1.81
2023-02-24T21:39:49.210Z,1.80
2023-02-24T21:40:49.248Z,1.82
2023-02-24T21:41:49.315Z,1.72
2023-02-24T21:42:49.339Z,1.73
2023-02-24T21:43:49.344Z,1.72
2023-02-24T21:44:49.391Z,1.73
2023-02-24T21:45:49.417Z,1.79
2023-02-24T21:46:49.444Z,1.81
2023-02-24T21:47:49.471Z,1.74
2023-02-24T21:48:49.516Z,1.73
2023-02-24T23:42:53.115Z,1.68
